sensor_id;sensor_type;location;lat;lon;timestamp;pressure;altitude;pressure_sealevel;temperature;humidity
7760;BME280;3924;48.830;9.262;2023-07-30T00:02:16;98128.22;;;19.21;84.85
7760;BME280;3924;48.830;9.262;2023-07-30T00:04:47;98125.75;;;19.16;85.13
7760;BME280;3924;48.830;9.262;2023-07-30T00:07:14;98121.44;;;19.15;85.09
7760;BME280;3924;48.830;9.262;2023-07-30T00:09:41;98105.66;;;19.12;85.26
7760;BME280;3924;48.830;9.262;2023-07-30T00:12:08;98106.00;;;19.10;85.58
7760;BME280;3924;48.830;9.262;2023-07-30T00:14:35;98104.41;;;19.09;85.42
7760;BME280;3924;48.830;9.262;2023-07-30T00:17:02;98105.59;;;19.08;85.42
7760;BME280;3924;48.830;9.262;2023-07-30T00:19:29;98114.88;;;19.04;85.83
7760;BME280;3924;48.830;9.262;2023-07-30T00:21:55;98116.91;;;19.07;85.81
7760;BME280;3924;48.830;9.262;2023-07-30T00:24:22;98120.13;;;19.09;85.92
7760;BME280;3924;48.830;9.262;2023-07-30T00:26:48;98113.88;;;19.12;86.14
7760;BME280;3924;48.830;9.262;2023-07-30T00:29:15;98111.56;;;19.14;85.77
7760;BME280;3924;48.830;9.262;2023-07-30T00:31:41;98124.97;;;19.16;86.02
7760;BME280;3924;48.830;9.262;2023-07-30T00:34:08;98140.38;;;19.20;86.15
7760;BME280;3924;48.830;9.262;2023-07-30T00:36:35;98134.44;;;19.18;85.84
7760;BME280;3924;48.830;9.262;2023-07-30T00:39:01;98141.78;;;19.14;86.15
7760;BME280;3924;48.830;9.262;2023-07-30T00:41:28;98151.50;;;19.08;86.05
7760;BME280;3924;48.830;9.262;2023-07-30T00:43:54;98157.28;;;19.03;86.15
7760;BME280;3924;48.830;9.262;2023-07-30T00:46:20;98161.88;;;18.99;86.35
7760;BME280;3924;48.830;9.262;2023-07-30T00:48:47;98160.22;;;18.94;86.13
7760;BME280;3924;48.830;9.262;2023-07-30T00:51:14;98157.38;;;18.91;86.50
7760;BME280;3924;48.830;9.262;2023-07-30T00:53:42;98144.78;;;18.90;86.60
7760;BME280;3924;48.830;9.262;2023-07-30T00:56:08;98145.22;;;18.92;86.53
7760;BME280;3924;48.830;9.262;2023-07-30T00:58:35;98156.56;;;18.90;86.45
7760;BME280;3924;48.830;9.262;2023-07-30T01:01:02;98161.72;;;18.92;86.62
7760;BME280;3924;48.830;9.262;2023-07-30T01:03:29;98158.53;;;18.90;86.63
7760;BME280;3924;48.830;9.262;2023-07-30T01:05:56;98156.47;;;18.86;86.85
7760;BME280;3924;48.830;9.262;2023-07-30T01:08:22;98150.66;;;18.88;86.82
7760;BME280;3924;48.830;9.262;2023-07-30T01:10:50;98163.13;;;18.85;86.79
7760;BME280;3924;48.830;9.262;2023-07-30T01:13:16;98170.50;;;18.81;86.93
7760;BME280;3924;48.830;9.262;2023-07-30T01:15:43;98171.22;;;18.78;87.01
7760;BME280;3924;48.830;9.262;2023-07-30T01:18:11;98162.53;;;18.76;86.80
7760;BME280;3924;48.830;9.262;2023-07-30T01:20:37;98167.22;;;18.76;86.92
7760;BME280;3924;48.830;9.262;2023-07-30T01:23:04;98171.94;;;18.75;86.87
7760;BME280;3924;48.830;9.262;2023-07-30T01:25:33;98168.03;;;18.76;87.11
7760;BME280;3924;48.830;9.262;2023-07-30T01:28:04;98179.38;;;18.75;86.92
7760;BME280;3924;48.830;9.262;2023-07-30T01:30:41;98178.66;;;18.78;86.97
7760;BME280;3924;48.830;9.262;2023-07-30T01:33:10;98179.91;;;18.80;87.02
7760;BME280;3924;48.830;9.262;2023-07-30T01:35:38;98178.28;;;18.79;86.94
7760;BME280;3924;48.830;9.262;2023-07-30T01:38:06;98181.50;;;18.81;87.04
7760;BME280;3924;48.830;9.262;2023-07-30T01:40:33;98183.78;;;18.79;87.18
7760;BME280;3924;48.830;9.262;2023-07-30T01:43:00;98179.91;;;18.80;87.19
7760;BME280;3924;48.830;9.262;2023-07-30T01:45:26;98190.97;;;18.84;87.23
7760;BME280;3924;48.830;9.262;2023-07-30T01:47:53;98188.66;;;18.86;86.96
7760;BME280;3924;48.830;9.262;2023-07-30T01:50:19;98191.06;;;18.88;87.17
7760;BME280;3924;48.830;9.262;2023-07-30T01:52:46;98198.94;;;18.89;87.14
7760;BME280;3924;48.830;9.262;2023-07-30T01:55:12;98196.63;;;18.91;87.27
7760;BME280;3924;48.830;9.262;2023-07-30T01:57:39;98200.59;;;18.94;87.33
7760;BME280;3924;48.830;9.262;2023-07-30T02:00:06;98192.81;;;18.96;87.23
7760;BME280;3924;48.830;9.262;2023-07-30T02:02:32;98193.19;;;18.94;87.24
7760;BME280;3924;48.830;9.262;2023-07-30T02:04:59;98190.44;;;18.94;87.49
7760;BME280;3924;48.830;9.262;2023-07-30T02:07:25;98190.78;;;18.93;87.49
7760;BME280;3924;48.830;9.262;2023-07-30T02:09:52;98187.69;;;18.94;87.53
7760;BME280;3924;48.830;9.262;2023-07-30T02:12:19;98191.22;;;18.95;87.48
7760;BME280;3924;48.830;9.262;2023-07-30T02:14:45;98186.44;;;18.92;87.73
7760;BME280;3924;48.830;9.262;2023-07-30T02:17:12;98186.44;;;18.92;87.58
7760;BME280;3924;48.830;9.262;2023-07-30T02:19:38;98189.63;;;18.94;87.41
7760;BME280;3924;48.830;9.262;2023-07-30T02:22:05;98173.13;;;18.94;87.59
7760;BME280;3924;48.830;9.262;2023-07-30T02:24:31;98178.63;;;18.94;87.31
7760;BME280;3924;48.830;9.262;2023-07-30T02:26:58;98178.63;;;18.94;87.67
7760;BME280;3924;48.830;9.262;2023-07-30T02:29:24;98174.28;;;18.93;87.56
7760;BME280;3924;48.830;9.262;2023-07-30T02:31:51;98172.34;;;18.93;87.76
7760;BME280;3924;48.830;9.262;2023-07-30T02:34:18;98178.63;;;18.94;87.92
7760;BME280;3924;48.830;9.262;2023-07-30T02:36:44;98186.53;;;18.95;87.71
7760;BME280;3924;48.830;9.262;2023-07-30T02:39:11;98191.22;;;18.95;87.88
7760;BME280;3924;48.830;9.262;2023-07-30T02:41:37;98190.44;;;18.94;88.06
7760;BME280;3924;48.830;9.262;2023-07-30T02:44:04;98192.34;;;18.94;88.14
7760;BME280;3924;48.830;9.262;2023-07-30T02:46:30;98198.31;;;18.96;88.09
7760;BME280;3924;48.830;9.262;2023-07-30T02:48:57;98197.53;;;18.95;88.05
7760;BME280;3924;48.830;9.262;2023-07-30T02:51:23;98204.59;;;18.96;88.19
7760;BME280;3924;48.830;9.262;2023-07-30T02:53:52;98201.44;;;18.94;88.08
7760;BME280;3924;48.830;9.262;2023-07-30T02:56:19;98200.59;;;18.94;88.30
7760;BME280;3924;48.830;9.262;2023-07-30T02:58:46;98188.03;;;18.93;88.07
7760;BME280;3924;48.830;9.262;2023-07-30T03:01:12;98199.81;;;18.93;88.31
7760;BME280;3924;48.830;9.262;2023-07-30T03:03:39;98186.78;;;18.90;88.39
7760;BME280;3924;48.830;9.262;2023-07-30T03:06:05;98187.16;;;18.89;88.62
7760;BME280;3924;48.830;9.262;2023-07-30T03:08:32;98193.34;;;18.85;88.55
7760;BME280;3924;48.830;9.262;2023-07-30T03:10:59;98197.97;;;18.81;88.52
7760;BME280;3924;48.830;9.262;2023-07-30T03:13:25;98200.25;;;18.79;88.71
7760;BME280;3924;48.830;9.262;2023-07-30T03:15:52;98204.53;;;18.77;88.62
7760;BME280;3924;48.830;9.262;2023-07-30T03:18:19;98198.13;;;18.73;88.63
7760;BME280;3924;48.830;9.262;2023-07-30T03:20:45;98193.00;;;18.71;88.73
7760;BME280;3924;48.830;9.262;2023-07-30T03:23:12;98196.91;;;18.70;88.76
7760;BME280;3924;48.830;9.262;2023-07-30T03:25:38;98196.91;;;18.70;88.79
7760;BME280;3924;48.830;9.262;2023-07-30T03:28:05;98204.34;;;18.70;88.86
7760;BME280;3924;48.830;9.262;2023-07-30T03:30:32;98198.50;;;18.71;88.94
7760;BME280;3924;48.830;9.262;2023-07-30T03:32:58;98206.75;;;18.71;88.89
7760;BME280;3924;48.830;9.262;2023-07-30T03:35:25;98201.59;;;18.70;88.56
7760;BME280;3924;48.830;9.262;2023-07-30T03:37:51;98202.41;;;18.70;88.89
7760;BME280;3924;48.830;9.262;2023-07-30T03:40:18;98207.91;;;18.70;89.11
7760;BME280;3924;48.830;9.262;2023-07-30T03:42:44;98204.78;;;18.72;88.61
7760;BME280;3924;48.830;9.262;2023-07-30T03:45:11;98206.03;;;18.74;88.87
7760;BME280;3924;48.830;9.262;2023-07-30T03:47:37;98206.84;;;18.75;89.06
7760;BME280;3924;48.830;9.262;2023-07-30T03:50:04;98207.63;;;18.75;89.14
7760;BME280;3924;48.830;9.262;2023-07-30T03:52:31;98208.78;;;18.74;89.12
7760;BME280;3924;48.830;9.262;2023-07-30T03:54:57;98219.78;;;18.74;89.24
7760;BME280;3924;48.830;9.262;2023-07-30T03:57:24;98215.09;;;18.75;89.19
7760;BME280;3924;48.830;9.262;2023-07-30T03:59:50;98217.47;;;18.76;88.98
7760;BME280;3924;48.830;9.262;2023-07-30T04:02:16;98225.28;;;18.74;89.15
7760;BME280;3924;48.830;9.262;2023-07-30T04:04:43;98226.06;;;18.75;89.07
7760;BME280;3924;48.830;9.262;2023-07-30T04:07:10;98232.34;;;18.75;89.14
7760;BME280;3924;48.830;9.262;2023-07-30T04:09:37;98228.88;;;18.78;89.08
7760;BME280;3924;48.830;9.262;2023-07-30T04:12:04;98225.09;;;18.83;89.17
7760;BME280;3924;48.830;9.262;2023-07-30T04:14:30;98225.53;;;18.85;89.14
7760;BME280;3924;48.830;9.262;2023-07-30T04:16:57;98237.31;;;18.85;89.06
7760;BME280;3924;48.830;9.262;2023-07-30T04:19:23;98238.47;;;18.84;89.54
7760;BME280;3924;48.830;9.262;2023-07-30T04:21:50;98236.88;;;18.83;89.19
7760;BME280;3924;48.830;9.262;2023-07-30T04:24:17;98229.78;;;18.82;89.01
7760;BME280;3924;48.830;9.262;2023-07-30T04:26:43;98230.94;;;18.81;89.50
7760;BME280;3924;48.830;9.262;2023-07-30T04:29:10;98233.22;;;18.79;89.37
7760;BME280;3924;48.830;9.262;2023-07-30T04:31:37;98250.84;;;18.78;89.26
7760;BME280;3924;48.830;9.262;2023-07-30T04:34:03;98259.03;;;18.75;89.27
7760;BME280;3924;48.830;9.262;2023-07-30T04:36:30;98262.81;;;18.70;89.20
7760;BME280;3924;48.830;9.262;2023-07-30T04:38:56;98265.13;;;18.68;89.54
7760;BME280;3924;48.830;9.262;2023-07-30T04:41:23;98266.59;;;18.66;89.72
7760;BME280;3924;48.830;9.262;2023-07-30T04:43:49;98266.59;;;18.66;89.55
7760;BME280;3924;48.830;9.262;2023-07-30T04:46:16;98257.56;;;18.65;89.64
7760;BME280;3924;48.830;9.262;2023-07-30T04:48:43;98257.91;;;18.64;89.67
7760;BME280;3924;48.830;9.262;2023-07-30T04:51:09;98257.56;;;18.65;89.81
7760;BME280;3924;48.830;9.262;2023-07-30T04:53:35;98260.28;;;18.65;90.06
7760;BME280;3924;48.830;9.262;2023-07-30T04:56:02;98262.75;;;18.67;89.85
7760;BME280;3924;48.830;9.262;2023-07-30T04:58:28;98264.41;;;18.71;89.61
7760;BME280;3924;48.830;9.262;2023-07-30T05:00:55;98253.44;;;18.71;89.75
7760;BME280;3924;48.830;9.262;2023-07-30T05:03:22;98261.41;;;18.76;89.77
7760;BME280;3924;48.830;9.262;2023-07-30T05:05:48;98263.78;;;18.78;89.71
7760;BME280;3924;48.830;9.262;2023-07-30T05:08:15;98268.66;;;18.84;89.65
7760;BME280;3924;48.830;9.262;2023-07-30T05:10:41;98272.66;;;18.87;89.63
7760;BME280;3924;48.830;9.262;2023-07-30T05:13:08;98274.59;;;18.86;89.79
7760;BME280;3924;48.830;9.262;2023-07-30T05:15:35;98279.66;;;18.84;89.70
7760;BME280;3924;48.830;9.262;2023-07-30T05:18:01;98286.22;;;18.80;89.70
7760;BME280;3924;48.830;9.262;2023-07-30T05:20:28;98285.78;;;18.78;89.90
7760;BME280;3924;48.830;9.262;2023-07-30T05:22:54;98290.47;;;18.77;89.85
7760;BME280;3924;48.830;9.262;2023-07-30T05:25:21;98294.38;;;18.76;89.69
7760;BME280;3924;48.830;9.262;2023-07-30T05:27:49;98295.97;;;18.77;89.96
7760;BME280;3924;48.830;9.262;2023-07-30T05:30:15;98294.38;;;18.76;89.68
7760;BME280;3924;48.830;9.262;2023-07-30T05:32:42;98297.81;;;18.73;89.83
7760;BME280;3924;48.830;9.262;2023-07-30T05:35:08;98296.56;;;18.71;89.86
7760;BME280;3924;48.830;9.262;2023-07-30T05:37:35;98291.44;;;18.69;90.02
7760;BME280;3924;48.830;9.262;2023-07-30T05:40:01;98296.22;;;18.72;90.08
7760;BME280;3924;48.830;9.262;2023-07-30T05:42:29;98289.50;;;18.70;90.06
7760;BME280;3924;48.830;9.262;2023-07-30T05:44:55;98290.50;;;18.65;89.97
7760;BME280;3924;48.830;9.262;2023-07-30T05:47:22;98289.38;;;18.66;90.07
7760;BME280;3924;48.830;9.262;2023-07-30T05:49:48;98287.09;;;18.68;90.12
7760;BME280;3924;48.830;9.262;2023-07-30T05:52:15;98284.78;;;18.70;90.19
7760;BME280;3924;48.830;9.262;2023-07-30T05:54:41;98289.94;;;18.72;90.18
7760;BME280;3924;48.830;9.262;2023-07-30T05:57:08;98294.25;;;18.73;90.18
7760;BME280;3924;48.830;9.262;2023-07-30T05:59:34;98293.81;;;18.71;90.15
7760;BME280;3924;48.830;9.262;2023-07-30T06:02:04;98284.78;;;18.70;90.04
7760;BME280;3924;48.830;9.262;2023-07-30T06:04:30;98284.72;;;18.67;90.14
7760;BME280;3924;48.830;9.262;2023-07-30T06:06:59;98284.34;;;18.68;90.03
7760;BME280;3924;48.830;9.262;2023-07-30T06:09:25;98287.97;;;18.72;90.29
7760;BME280;3924;48.830;9.262;2023-07-30T06:11:52;98289.41;;;18.82;90.20
7760;BME280;3924;48.830;9.262;2023-07-30T06:14:18;98288.50;;;18.94;89.82
7760;BME280;3924;48.830;9.262;2023-07-30T06:16:45;98292.78;;;19.07;89.62
7760;BME280;3924;48.830;9.262;2023-07-30T06:19:11;98287.56;;;19.18;89.61
7760;BME280;3924;48.830;9.262;2023-07-30T06:21:38;98281.44;;;19.24;89.63
7760;BME280;3924;48.830;9.262;2023-07-30T06:24:05;98288.44;;;19.22;89.13
7760;BME280;3924;48.830;9.262;2023-07-30T06:26:31;98286.31;;;19.15;89.29
7760;BME280;3924;48.830;9.262;2023-07-30T06:28:58;98292.88;;;19.10;89.61
7760;BME280;3924;48.830;9.262;2023-07-30T06:31:24;98297.94;;;19.08;89.56
7760;BME280;3924;48.830;9.262;2023-07-30T06:33:51;98291.28;;;19.09;89.86
7760;BME280;3924;48.830;9.262;2023-07-30T06:36:18;98294.56;;;19.15;89.65
7760;BME280;3924;48.830;9.262;2023-07-30T06:38:44;98280.53;;;19.20;89.73
7760;BME280;3924;48.830;9.262;2023-07-30T06:41:11;98280.00;;;19.30;89.68
7760;BME280;3924;48.830;9.262;2023-07-30T06:43:37;98288.47;;;19.41;89.53
7760;BME280;3924;48.830;9.262;2023-07-30T06:46:04;98297.63;;;19.61;89.65
7760;BME280;3924;48.830;9.262;2023-07-30T06:48:30;98302.13;;;20.04;88.80
7760;BME280;3924;48.830;9.262;2023-07-30T06:50:57;98314.13;;;20.35;88.24
7760;BME280;3924;48.830;9.262;2023-07-30T06:53:23;98332.75;;;20.41;87.78
7760;BME280;3924;48.830;9.262;2023-07-30T06:55:50;98321.31;;;20.20;87.72
7760;BME280;3924;48.830;9.262;2023-07-30T06:58:16;98328.09;;;20.07;88.21
7760;BME280;3924;48.830;9.262;2023-07-30T07:00:43;98327.16;;;19.99;88.43
7760;BME280;3924;48.830;9.262;2023-07-30T07:03:09;98327.38;;;19.90;88.31
7760;BME280;3924;48.830;9.262;2023-07-30T07:05:36;98329.09;;;19.79;88.64
7760;BME280;3924;48.830;9.262;2023-07-30T07:08:03;98335.13;;;19.69;88.96
7760;BME280;3924;48.830;9.262;2023-07-30T07:10:30;98327.88;;;19.61;89.07
7760;BME280;3924;48.830;9.262;2023-07-30T07:12:56;98323.75;;;19.55;89.10
7760;BME280;3924;48.830;9.262;2023-07-30T07:15:23;98333.81;;;19.47;89.01
7760;BME280;3924;48.830;9.262;2023-07-30T07:17:49;98334.53;;;19.44;89.49
7760;BME280;3924;48.830;9.262;2023-07-30T07:20:16;98340.38;;;19.43;89.34
7760;BME280;3924;48.830;9.262;2023-07-30T07:22:42;98336.03;;;19.41;89.59
7760;BME280;3924;48.830;9.262;2023-07-30T07:25:09;98332.94;;;19.43;89.33
7760;BME280;3924;48.830;9.262;2023-07-30T07:27:36;98336.81;;;19.42;89.32
7760;BME280;3924;48.830;9.262;2023-07-30T07:30:03;98338.06;;;19.45;89.39
7760;BME280;3924;48.830;9.262;2023-07-30T07:32:29;98340.09;;;19.48;89.36
7760;BME280;3924;48.830;9.262;2023-07-30T07:34:56;98351.09;;;19.48;89.48
7760;BME280;3924;48.830;9.262;2023-07-30T07:37:22;98353.84;;;19.48;89.19
7760;BME280;3924;48.830;9.262;2023-07-30T07:39:49;98357.75;;;19.47;89.16
7760;BME280;3924;48.830;9.262;2023-07-30T07:42:15;98360.06;;;19.45;89.25
7760;BME280;3924;48.830;9.262;2023-07-30T07:44:42;98370.63;;;19.43;89.47
7760;BME280;3924;48.830;9.262;2023-07-30T07:47:12;98378.41;;;19.40;89.33
7760;BME280;3924;48.830;9.262;2023-07-30T07:49:38;98380.19;;;19.33;89.36
7760;BME280;3924;48.830;9.262;2023-07-30T07:52:05;98378.88;;;19.11;89.29
7760;BME280;3924;48.830;9.262;2023-07-30T07:54:32;98379.66;;;18.96;89.54
7760;BME280;3924;48.830;9.262;2023-07-30T07:56:58;98368.00;;;18.86;89.79
7760;BME280;3924;48.830;9.262;2023-07-30T07:59:24;98391.59;;;18.88;89.93
7760;BME280;3924;48.830;9.262;2023-07-30T08:01:51;98382.66;;;18.91;90.02
7760;BME280;3924;48.830;9.262;2023-07-30T08:04:17;98381.78;;;19.02;89.78
7760;BME280;3924;48.830;9.262;2023-07-30T08:06:45;98376.13;;;19.11;89.66
7760;BME280;3924;48.830;9.262;2023-07-30T08:09:11;98377.63;;;19.24;89.44
7760;BME280;3924;48.830;9.262;2023-07-30T08:11:37;98379.84;;;19.34;89.24
7760;BME280;3924;48.830;9.262;2023-07-30T08:14:04;98382.75;;;19.41;89.20
7760;BME280;3924;48.830;9.262;2023-07-30T08:16:31;98386.50;;;19.49;88.77
7760;BME280;3924;48.830;9.262;2023-07-30T08:18:57;98376.75;;;19.52;88.81
7760;BME280;3924;48.830;9.262;2023-07-30T08:21:25;98385.88;;;19.56;88.97
7760;BME280;3924;48.830;9.262;2023-07-30T08:23:51;98386.09;;;19.63;88.91
7760;BME280;3924;48.830;9.262;2023-07-30T08:26:18;98386.09;;;19.63;88.73
7760;BME280;3924;48.830;9.262;2023-07-30T08:28:44;98382.72;;;19.70;88.60
7760;BME280;3924;48.830;9.262;2023-07-30T08:31:11;98385.00;;;19.83;88.64
7760;BME280;3924;48.830;9.262;2023-07-30T08:33:37;98380.31;;;20.03;88.02
7760;BME280;3924;48.830;9.262;2023-07-30T08:36:04;98365.94;;;20.29;87.85
7760;BME280;3924;48.830;9.262;2023-07-30T08:38:30;98369.16;;;20.51;87.36
7760;BME280;3924;48.830;9.262;2023-07-30T08:40:57;98360.97;;;20.73;87.15
7760;BME280;3924;48.830;9.262;2023-07-30T08:43:23;98365.94;;;20.87;86.84
7760;BME280;3924;48.830;9.262;2023-07-30T08:45:50;98376.09;;;20.83;86.58
7760;BME280;3924;48.830;9.262;2023-07-30T08:48:16;98364.66;;;20.81;87.00
7760;BME280;3924;48.830;9.262;2023-07-30T08:50:44;98374.88;;;20.81;86.69
7760;BME280;3924;48.830;9.262;2023-07-30T08:53:11;98357.97;;;20.82;86.60
7760;BME280;3924;48.830;9.262;2023-07-30T08:55:40;98366.59;;;20.81;86.67
7760;BME280;3924;48.830;9.262;2023-07-30T08:58:08;98369.28;;;20.77;86.52
7760;BME280;3924;48.830;9.262;2023-07-30T09:00:37;98372.84;;;20.77;86.32
7760;BME280;3924;48.830;9.262;2023-07-30T09:03:05;98379.66;;;20.84;86.15
7760;BME280;3924;48.830;9.262;2023-07-30T09:05:33;98384.00;;;20.85;86.17
7760;BME280;3924;48.830;9.262;2023-07-30T09:07:59;98377.81;;;20.91;86.19
7760;BME280;3924;48.830;9.262;2023-07-30T09:10:26;98383.28;;;20.88;85.88
7760;BME280;3924;48.830;9.262;2023-07-30T09:12:54;98380.72;;;20.79;86.02
7760;BME280;3924;48.830;9.262;2023-07-30T09:15:36;98388.50;;;20.73;86.13
7760;BME280;3924;48.830;9.262;2023-07-30T09:18:05;98383.94;;;20.81;85.67
7760;BME280;3924;48.830;9.262;2023-07-30T09:20:41;98393.94;;;20.89;85.51
7760;BME280;3924;48.830;9.262;2023-07-30T09:23:09;98388.00;;;20.87;85.76
7760;BME280;3924;48.830;9.262;2023-07-30T09:28:10;98387.53;;;20.85;85.38
7760;BME280;3924;48.830;9.262;2023-07-30T09:30:36;98391.97;;;20.90;85.34
7760;BME280;3924;48.830;9.262;2023-07-30T09:33:03;98396.75;;;20.93;85.09
7760;BME280;3924;48.830;9.262;2023-07-30T09:35:32;98403.38;;;20.88;84.71
7760;BME280;3924;48.830;9.262;2023-07-30T09:38:01;98397.25;;;20.98;84.68
7760;BME280;3924;48.830;9.262;2023-07-30T09:40:36;98403.63;;;21.02;84.16
7760;BME280;3924;48.830;9.262;2023-07-30T09:43:04;98399.44;;;20.89;84.35
7760;BME280;3924;48.830;9.262;2023-07-30T09:45:35;98403.66;;;20.83;84.36
7760;BME280;3924;48.830;9.262;2023-07-30T09:48:04;98418.47;;;20.75;84.27
7760;BME280;3924;48.830;9.262;2023-07-30T09:50:36;98418.31;;;20.68;84.16
7760;BME280;3924;48.830;9.262;2023-07-30T09:53:03;98414.03;;;20.70;83.90
7760;BME280;3924;48.830;9.262;2023-07-30T09:55:30;98426.28;;;20.73;83.65
7760;BME280;3924;48.830;9.262;2023-07-30T09:57:57;98414.41;;;20.69;83.64
7760;BME280;3924;48.830;9.262;2023-07-30T10:00:23;98409.63;;;20.66;83.33
7760;BME280;3924;48.830;9.262;2023-07-30T10:02:51;98423.69;;;20.61;83.26
7760;BME280;3924;48.830;9.262;2023-07-30T10:05:20;98415.94;;;20.66;83.02
7760;BME280;3924;48.830;9.262;2023-07-30T10:08:05;98422.38;;;20.74;82.49
7760;BME280;3924;48.830;9.262;2023-07-30T10:10:34;98423.06;;;20.90;82.22
7760;BME280;3924;48.830;9.262;2023-07-30T10:13:05;98427.81;;;21.13;81.61
7760;BME280;3924;48.830;9.262;2023-07-30T10:15:43;98429.78;;;21.32;80.91
7760;BME280;3924;48.830;9.262;2023-07-30T10:18:10;98423.84;;;21.52;80.14
7760;BME280;3924;48.830;9.262;2023-07-30T10:20:37;98422.97;;;21.71;79.75
7760;BME280;3924;48.830;9.262;2023-07-30T10:23:04;98432.69;;;21.88;79.11
7760;BME280;3924;48.830;9.262;2023-07-30T10:25:46;98437.19;;;21.96;78.60
7760;BME280;3924;48.830;9.262;2023-07-30T10:28:32;98433.63;;;22.22;77.71
7760;BME280;3924;48.830;9.262;2023-07-30T10:31:01;98441.06;;;22.45;76.91
7760;BME280;3924;48.830;9.262;2023-07-30T10:33:52;98434.63;;;22.37;76.85
7760;BME280;3924;48.830;9.262;2023-07-30T10:36:31;98433.13;;;22.43;75.77
7760;BME280;3924;48.830;9.262;2023-07-30T10:39:10;98420.75;;;22.63;75.32
7760;BME280;3924;48.830;9.262;2023-07-30T10:41:38;98434.34;;;22.76;74.64
7760;BME280;3924;48.830;9.262;2023-07-30T10:44:17;98437.59;;;22.85;74.27
7760;BME280;3924;48.830;9.262;2023-07-30T10:46:44;98425.56;;;22.66;74.08
7760;BME280;3924;48.830;9.262;2023-07-30T10:49:11;98428.78;;;22.42;74.28
7760;BME280;3924;48.830;9.262;2023-07-30T10:51:39;98436.25;;;22.38;74.36
7760;BME280;3924;48.830;9.262;2023-07-30T10:54:06;98429.41;;;22.58;73.25
7760;BME280;3924;48.830;9.262;2023-07-30T10:56:36;98422.97;;;22.81;72.65
7760;BME280;3924;48.830;9.262;2023-07-30T10:59:05;98418.09;;;23.01;72.04
7760;BME280;3924;48.830;9.262;2023-07-30T11:01:36;98419.84;;;23.19;71.17
7760;BME280;3924;48.830;9.262;2023-07-30T11:04:15;98431.94;;;23.41;70.44
7760;BME280;3924;48.830;9.262;2023-07-30T11:06:47;98434.53;;;23.64;69.77
7760;BME280;3924;48.830;9.262;2023-07-30T11:09:21;98443.25;;;23.66;69.02
7760;BME280;3924;48.830;9.262;2023-07-30T11:11:49;98438.13;;;23.28;69.24
7760;BME280;3924;48.830;9.262;2023-07-30T11:14:17;98464.31;;;23.00;69.97
7760;BME280;3924;48.830;9.262;2023-07-30T11:16:55;98452.03;;;22.67;69.99
7760;BME280;3924;48.830;9.262;2023-07-30T11:19:21;98456.13;;;22.51;70.08
7760;BME280;3924;48.830;9.262;2023-07-30T11:21:49;98456.72;;;22.37;69.84
7760;BME280;3924;48.830;9.262;2023-07-30T11:24:20;98452.72;;;22.31;69.83
7760;BME280;3924;48.830;9.262;2023-07-30T11:26:57;98452.97;;;22.22;69.71
7760;BME280;3924;48.830;9.262;2023-07-30T11:29:24;98454.63;;;22.27;69.51
7760;BME280;3924;48.830;9.262;2023-07-30T11:31:51;98456.88;;;22.18;69.40
7760;BME280;3924;48.830;9.262;2023-07-30T11:34:18;98453.84;;;22.03;69.45
7760;BME280;3924;48.830;9.262;2023-07-30T11:36:45;98451.56;;;22.35;68.69
7760;BME280;3924;48.830;9.262;2023-07-30T11:39:12;98449.63;;;22.36;68.25
7760;BME280;3924;48.830;9.262;2023-07-30T11:41:38;98465.34;;;22.32;67.99
7760;BME280;3924;48.830;9.262;2023-07-30T11:44:06;98458.03;;;22.73;67.39
7760;BME280;3924;48.830;9.262;2023-07-30T11:46:32;98454.81;;;23.01;66.75
7760;BME280;3924;48.830;9.262;2023-07-30T11:49:15;98456.41;;;23.02;66.18
7760;BME280;3924;48.830;9.262;2023-07-30T11:51:45;98469.97;;;22.81;66.53
7760;BME280;3924;48.830;9.262;2023-07-30T11:54:21;98468.31;;;22.76;66.55
7760;BME280;3924;48.830;9.262;2023-07-30T11:56:55;98471.50;;;22.78;66.69
7760;BME280;3924;48.830;9.262;2023-07-30T11:59:22;98471.13;;;22.80;66.25
7760;BME280;3924;48.830;9.262;2023-07-30T12:01:49;98470.88;;;22.88;66.28
7760;BME280;3924;48.830;9.262;2023-07-30T12:04:15;98474.75;;;23.17;65.26
7760;BME280;3924;48.830;9.262;2023-07-30T12:06:47;98482.53;;;23.42;64.73
7760;BME280;3924;48.830;9.262;2023-07-30T12:09:16;98491.59;;;23.39;64.29
7760;BME280;3924;48.830;9.262;2023-07-30T12:11:53;98491.03;;;23.26;64.63
7760;BME280;3924;48.830;9.262;2023-07-30T12:17:14;98489.00;;;23.57;63.61
7760;BME280;3924;48.830;9.262;2023-07-30T12:19:41;98472.72;;;23.89;63.24
7760;BME280;3924;48.830;9.262;2023-07-30T12:22:08;98483.44;;;23.94;62.53
7760;BME280;3924;48.830;9.262;2023-07-30T12:24:34;98480.63;;;23.50;63.24
7760;BME280;3924;48.830;9.262;2023-07-30T12:27:01;98485.72;;;23.44;63.35
7760;BME280;3924;48.830;9.262;2023-07-30T12:29:27;98490.75;;;23.68;62.70
7760;BME280;3924;48.830;9.262;2023-07-30T12:31:54;98478.88;;;23.68;62.26
7760;BME280;3924;48.830;9.262;2023-07-30T12:34:22;98468.22;;;23.73;62.01
7760;BME280;3924;48.830;9.262;2023-07-30T12:36:49;98467.34;;;23.62;61.98
7760;BME280;3924;48.830;9.262;2023-07-30T12:39:16;98463.31;;;23.56;62.24
7760;BME280;3924;48.830;9.262;2023-07-30T12:41:42;98485.09;;;23.20;63.27
7760;BME280;3924;48.830;9.262;2023-07-30T12:44:09;98481.69;;;23.01;63.28
7760;BME280;3924;48.830;9.262;2023-07-30T12:46:36;98488.63;;;23.21;62.92
7760;BME280;3924;48.830;9.262;2023-07-30T12:49:02;98490.06;;;23.45;62.13
7760;BME280;3924;48.830;9.262;2023-07-30T12:51:31;98491.19;;;23.37;62.53
7760;BME280;3924;48.830;9.262;2023-07-30T12:53:58;98488.47;;;23.44;61.97
7760;BME280;3924;48.830;9.262;2023-07-30T12:56:24;98487.44;;;23.59;61.71
7760;BME280;3924;48.830;9.262;2023-07-30T12:58:51;98482.06;;;23.70;61.31
7760;BME280;3924;48.830;9.262;2023-07-30T13:01:17;98488.09;;;23.83;61.01
7760;BME280;3924;48.830;9.262;2023-07-30T13:03:44;98479.81;;;23.86;60.81
7760;BME280;3924;48.830;9.262;2023-07-30T13:06:13;98486.84;;;23.77;60.66
7760;BME280;3924;48.830;9.262;2023-07-30T13:08:39;98496.38;;;23.42;61.12
7760;BME280;3924;48.830;9.262;2023-07-30T13:11:07;98486.34;;;23.27;61.57
7760;BME280;3924;48.830;9.262;2023-07-30T13:13:33;98488.53;;;23.47;60.91
7760;BME280;3924;48.830;9.262;2023-07-30T13:16:00;98495.84;;;23.29;61.30
7760;BME280;3924;48.830;9.262;2023-07-30T13:18:28;98496.72;;;23.03;61.45
7760;BME280;3924;48.830;9.262;2023-07-30T13:20:55;98502.94;;;22.93;61.46
7760;BME280;3924;48.830;9.262;2023-07-30T13:23:22;98501.94;;;23.08;61.13
7760;BME280;3924;48.830;9.262;2023-07-30T13:25:51;98490.50;;;23.47;60.57
7760;BME280;3924;48.830;9.262;2023-07-30T13:28:18;98497.72;;;23.96;59.06
7760;BME280;3924;48.830;9.262;2023-07-30T13:30:44;98498.28;;;24.19;58.46